Aeroporto :
LOGIN :

Iscrizione | Disclaimer

   EN    FR    IT 

 










Sommario :    VFR   VFR Marginale   IFR   IFR Intensivo   IFR Molto Intensivo
Visibilità : 
Base nubi : 
>= 8 km
>= 3000ft
5 / 8 km
1000 / 3000 ft
1500m / 5 km
500 / 1000 ft
800 / 1500m
200 / 500 ft
< 800m
< 200 ft
Simboli :   Temporali  Nebbia  Neve Forte  Precipitazioni Forti  Vento > 20 kt
SIGMETs :   Varie  Temporali  Ghiacco  Turbolenza  Onda orograficha  Ceneri Vulcaniche






- Altitudine del aeroporto : 146 ft
- Codice IATA : RKE


EKRK - Roskilde Tune

ULTIMO METAR :
  • 242250Z AUTO 13021KT 8000 -RA OVC010/// 03/02 Q0995

METARs OBSOLETI :
  • 242220Z AUTO 14020KT 9999 -RA OVC010/// 03/02 Q0996
  • 242150Z AUTO 14016KT 9999 -RA OVC010/// 03/02 Q0997
  • 242120Z AUTO 14014KT 9999 -RA BKN009/// OVC066/// 03/02 Q0998
  • 242050Z AUTO 15011KT 9999 -RA BKN008/// OVC035/// 03/02 Q0999
  • 242020Z AUTO 15008KT 9999 -RA OVC015/// 02/01 Q1000

TAF TAF EKRK
Valido dal 24 a 21 ore il 25 a 06 ore UTC


242022Z 2421/2506 15015KT 8000 BKN015
BECMG 2421/2423 3000 -RA BKN005
TEMPO 2423/2503 15018G28KT 2000 RASN BKN002
BECMG 2503/2505 23015KT 9999 NSW BKN020
TEMPO 2505/2506 23015G25KT SHRA SCT020CB



MetMap, La meteo Aeronautica in un colpo d'occhio ! - Copyright ORBIFLY Dicembre 2007 - Disclaimer

ORBIFLY MET'MAP TEAM :

Programmazione e sviluppo : Alexandra Zaïnal
Concezione : Baudouin d'Aumeries
Aiuto per la programmazione : Marc-Olivier Méhu
Supporto tecnico e logistico : Manuel Goepfert
Aiuto per la traduzione : Arnaldo La Scala

Contatto : metmap@orbifly.com




FONTI E CREDITI :

   NOAA